Time;durP1;ratioP1;P1;durP2;ratioP2;P2;SDS_P1;SDS_P2;PMS_P1;PMS_P2;Temp;Humidity;BMP_temperature;BMP_pressure;BME280_temperature;BME280_humidity;BME280_pressure;Samples;Min_cycle;Max_cycle;Signal;HPM_P1;HPM_P2
2023/06/14 00:00:35;;;;;;;4.13;3.73;;;24.90;71.00;;;;;;5042082;28;20469;-62
2023/06/14 00:03:01;;;;;;;4.23;3.90;;;24.80;70.90;;;;;;5050504;28;20549;-63
2023/06/14 00:05:29;;;;;;;5.27;4.13;;;24.80;71.00;;;;;;5046820;28;20465;-62
2023/06/14 00:07:56;;;;;;;4.60;3.33;;;24.80;70.90;;;;;;5053062;28;20446;-63
2023/06/14 00:10:24;;;;;;;5.40;4.90;;;24.80;70.90;;;;;;5042039;28;20482;-63
2023/06/14 00:12:51;;;;;;;6.73;4.40;;;24.80;71.00;;;;;;5044968;28;20511;-63
2023/06/14 00:15:17;;;;;;;5.90;4.10;;;24.80;71.00;;;;;;5046613;28;20489;-65
2023/06/14 00:17:47;;;;;;;5.60;5.10;;;24.80;71.00;;;;;;5052250;28;20984;-63
2023/06/14 00:20:13;;;;;;;5.47;4.30;;;24.80;71.00;;;;;;5043228;28;20454;-65
2023/06/14 00:22:40;;;;;;;5.20;3.93;;;24.80;71.10;;;;;;5050534;28;20512;-63
2023/06/14 00:25:08;;;;;;;4.23;3.80;;;24.80;71.10;;;;;;5047775;28;20486;-62
2023/06/14 00:27:36;;;;;;;3.40;3.10;;;24.80;71.20;;;;;;5047837;28;21030;-62
2023/06/14 00:30:02;;;;;;;4.47;4.10;;;24.80;72.00;;;;;;5042913;28;20454;-63
2023/06/14 00:32:29;;;;;;;4.40;3.97;;;24.80;71.20;;;;;;5047981;28;20463;-63
2023/06/14 00:34:56;;;;;;;4.67;4.27;;;24.80;71.20;;;;;;5044997;28;20462;-64
2023/06/14 00:37:22;;;;;;;3.57;3.27;;;24.80;71.20;;;;;;5048679;28;20462;-63
2023/06/14 00:39:49;;;;;;;4.53;4.20;;;24.80;71.20;;;;;;5047502;28;20492;-63
2023/06/14 00:42:25;;;;;;;4.47;4.10;;;24.80;71.20;;;;;;5048889;28;20466;-63
2023/06/14 00:44:53;;;;;;;3.87;3.57;;;24.80;71.30;;;;;;5039881;28;20546;-63
2023/06/14 00:47:20;;;;;;;3.73;3.43;;;24.80;71.30;;;;;;5053355;28;20454;-64
2023/06/14 00:49:48;;;;;;;3.97;3.57;;;24.80;71.30;;;;;;5048400;28;20457;-63
2023/06/14 00:52:15;;;;;;;4.40;4.10;;;24.80;71.30;;;;;;5048067;28;20560;-63
2023/06/14 00:54:42;;;;;;;4.00;3.70;;;24.80;71.40;;;;;;5048203;28;20488;-65
2023/06/14 00:57:10;;;;;;;3.70;3.40;;;24.80;71.40;;;;;;5047439;28;20869;-63
2023/06/14 00:59:41;;;;;;;5.27;4.77;;;24.80;71.40;;;;;;5041160;28;20462;-63
2023/06/14 01:02:09;;;;;;;4.83;4.30;;;24.70;71.30;;;;;;5049543;28;20450;-64
2023/06/14 01:04:37;;;;;;;4.53;3.80;;;24.80;71.50;;;;;;5045999;28;20462;-64
2023/06/14 01:07:13;;;;;;;6.90;4.50;;;24.70;71.40;;;;;;5037862;28;20527;-63
2023/06/14 01:09:52;;;;;;;4.73;3.30;;;24.70;71.40;;;;;;5040473;28;20926;-63
2023/06/14 01:12:29;;;;;;;4.23;3.50;;;24.70;71.40;;;;;;5044450;28;20482;-63
2023/06/14 01:14:57;;;;;;;4.60;4.20;;;24.70;71.40;;;;;;5049266;28;21264;-63
2023/06/14 01:17:26;;;;;;;3.83;3.43;;;24.70;71.50;;;;;;5050829;28;20508;-63
2023/06/14 01:19:57;;;;;;;4.13;3.83;;;24.70;71.50;;;;;;5044071;28;20494;-63
2023/06/14 01:22:26;;;;;;;3.47;3.03;;;24.70;71.50;;;;;;5045904;28;20688;-64
2023/06/14 01:24:55;;;;;;;4.30;3.90;;;24.70;71.50;;;;;;5038346;28;20490;-63
2023/06/14 01:27:23;;;;;;;3.90;3.60;;;24.70;71.50;;;;;;5040611;28;20469;-64
2023/06/14 01:29:51;;;;;;;3.70;3.40;;;24.70;71.60;;;;;;5044329;28;20458;-64
2023/06/14 01:32:19;;;;;;;4.10;3.60;;;24.70;71.60;;;;;;5050633;28;20575;-64
2023/06/14 01:34:46;;;;;;;6.43;3.10;;;24.70;71.70;;;;;;5045754;28;20462;-63
2023/06/14 01:37:14;;;;;;;4.00;3.60;;;24.70;71.60;;;;;;5047337;28;20493;-64
2023/06/14 01:39:43;;;;;;;3.40;3.10;;;24.70;71.70;;;;;;5046682;28;20450;-63
2023/06/14 01:42:13;;;;;;;4.00;3.60;;;24.70;71.70;;;;;;5045826;28;20979;-63
2023/06/14 01:44:41;;;;;;;6.70;3.83;;;24.70;71.70;;;;;;5041031;28;20458;-63
2023/06/14 01:47:08;;;;;;;3.97;3.50;;;24.70;71.70;;;;;;5045715;28;20457;-63
2023/06/14 01:49:35;;;;;;;3.13;2.87;;;24.70;71.70;;;;;;5043269;28;20492;-63
2023/06/14 01:52:02;;;;;;;6.27;4.00;;;24.60;71.70;;;;;;5045602;28;20487;-63
2023/06/14 01:54:29;;;;;;;5.63;3.27;;;24.60;71.70;;;;;;5039127;28;20469;-63
2023/06/14 01:56:56;;;;;;;5.33;3.03;;;24.60;71.70;;;;;;5042300;28;20454;-63
2023/06/14 01:59:24;;;;;;;4.73;3.20;;;24.60;71.70;;;;;;5041106;28;20462;-64
2023/06/14 02:01:51;;;;;;;4.10;3.70;;;24.60;71.70;;;;;;5058631;28;20451;-64
2023/06/14 02:04:18;;;;;;;6.50;3.20;;;24.60;71.70;;;;;;5040845;28;20457;-63
2023/06/14 02:06:44;;;;;;;4.10;3.60;;;24.60;71.80;;;;;;5044186;28;20977;-63
2023/06/14 02:09:11;;;;;;;4.03;3.40;;;24.60;71.80;;;;;;5048716;28;20838;-63
2023/06/14 02:11:37;;;;;;;4.50;3.77;;;24.60;71.80;;;;;;5043745;28;20478;-63
2023/06/14 02:14:04;;;;;;;4.37;3.97;;;24.60;71.80;;;;;;5045892;28;20462;-63
2023/06/14 02:16:35;;;;;;;3.70;3.40;;;24.60;71.80;;;;;;5050089;28;20446;-64
2023/06/14 02:19:02;;;;;;;4.80;3.90;;;24.60;71.90;;;;;;5047893;28;20470;-63
2023/06/14 02:21:28;;;;;;;3.87;3.47;;;24.60;71.90;;;;;;5045722;28;20454;-65
2023/06/14 02:23:55;;;;;;;3.93;3.63;;;24.60;71.90;;;;;;5046592;28;20485;-63
2023/06/14 02:26:23;;;;;;;3.00;2.80;;;24.60;71.90;;;;;;5047170;28;20458;-63
2023/06/14 02:28:50;;;;;;;7.63;3.37;;;24.60;72.00;;;;;;5041636;28;20549;-63
2023/06/14 02:31:17;;;;;;;3.87;3.43;;;24.60;71.90;;;;;;5043124;28;20482;-63
2023/06/14 02:33:45;;;;;;;3.93;3.57;;;24.60;72.00;;;;;;5043677;28;20550;-63
2023/06/14 02:36:11;;;;;;;3.60;3.30;;;24.60;72.00;;;;;;5048394;28;20447;-63
2023/06/14 02:38:38;;;;;;;5.57;3.70;;;24.60;72.00;;;;;;5051151;28;20465;-66
2023/06/14 02:41:05;;;;;;;3.60;3.23;;;24.60;72.00;;;;;;5052084;28;20454;-64
2023/06/14 02:43:32;;;;;;;3.00;2.80;;;24.60;72.00;;;;;;5047167;28;20457;-62
2023/06/14 02:45:59;;;;;;;3.27;2.97;;;24.60;72.10;;;;;;5040906;28;20879;-64
2023/06/14 02:48:25;;;;;;;4.47;3.47;;;24.60;72.10;;;;;;5047449;28;20553;-65
2023/06/14 02:50:53;;;;;;;3.23;2.97;;;24.60;72.40;;;;;;5039953;28;20458;-63
2023/06/14 02:53:20;;;;;;;3.90;3.50;;;24.60;72.10;;;;;;5039499;28;20962;-63
2023/06/14 02:55:48;;;;;;;4.03;3.63;;;24.60;72.20;;;;;;5038405;28;20477;-64
2023/06/14 02:58:15;;;;;;;3.63;3.33;;;24.60;72.20;;;;;;5036066;28;20895;-63
2023/06/14 03:00:43;;;;;;;3.80;3.30;;;24.60;72.20;;;;;;5033417;28;20459;-63
2023/06/14 03:03:13;;;;;;;3.33;3.03;;;24.60;72.20;;;;;;5039143;28;20484;-65
2023/06/14 03:05:45;;;;;;;3.87;3.50;;;24.60;72.30;;;;;;5036595;28;20520;-63
2023/06/14 03:08:16;;;;;;;3.50;3.13;;;24.60;72.30;;;;;;5033206;28;20490;-63
2023/06/14 03:10:44;;;;;;;3.50;3.20;;;24.60;72.30;;;;;;5037807;28;20453;-63
2023/06/14 03:13:11;;;;;;;4.33;3.70;;;24.50;72.20;;;;;;5034816;28;20481;-62
2023/06/14 03:15:41;;;;;;;3.40;3.10;;;24.50;72.20;;;;;;5039118;28;20949;-65
2023/06/14 03:18:08;;;;;;;3.87;3.30;;;24.50;72.20;;;;;;5040882;28;20481;-63
2023/06/14 03:20:34;;;;;;;3.50;3.20;;;24.60;72.40;;;;;;5042604;28;20462;-64
2023/06/14 03:23:02;;;;;;;3.73;3.03;;;24.50;72.20;;;;;;5049281;28;20794;-64
2023/06/14 03:25:31;;;;;;;5.50;3.17;;;24.50;72.20;;;;;;5046835;28;21022;-63
2023/06/14 03:27:57;;;;;;;3.53;3.23;;;24.50;72.30;;;;;;5048672;28;20767;-64
2023/06/14 03:30:24;;;;;;;3.73;3.43;;;24.50;72.30;;;;;;5049995;28;20515;-63
2023/06/14 03:32:51;;;;;;;4.53;3.50;;;24.50;72.30;;;;;;5053022;28;20559;-63
2023/06/14 03:35:18;;;;;;;5.03;3.60;;;24.50;72.30;;;;;;5049964;28;20464;-63
2023/06/14 03:37:45;;;;;;;3.83;3.53;;;24.50;72.30;;;;;;5044646;28;20477;-63
2023/06/14 03:40:13;;;;;;;3.20;3.00;;;24.50;72.30;;;;;;5044425;28;20508;-63
2023/06/14 03:42:41;;;;;;;3.57;3.27;;;24.50;72.40;;;;;;5051286;28;20469;-63
2023/06/14 03:45:08;;;;;;;3.20;2.90;;;24.50;72.40;;;;;;5052003;28;20462;-63
2023/06/14 03:47:36;;;;;;;3.10;2.80;;;24.50;72.40;;;;;;5052552;28;20458;-64
2023/06/14 03:50:03;;;;;;;3.40;3.10;;;24.50;72.40;;;;;;5050902;28;20545;-63
2023/06/14 03:52:31;;;;;;;3.40;2.80;;;24.50;72.50;;;;;;5058760;28;20489;-63
2023/06/14 03:54:59;;;;;;;2.93;2.70;;;24.50;72.40;;;;;;5050715;28;20463;-62
2023/06/14 03:57:26;;;;;;;4.00;3.17;;;24.50;72.50;;;;;;5048847;28;20458;-65
2023/06/14 03:59:54;;;;;;;3.30;2.80;;;24.50;72.50;;;;;;5044712;28;21044;-63
2023/06/14 04:02:20;;;;;;;3.40;3.10;;;24.50;72.50;;;;;;5050681;28;20865;-63
2023/06/14 04:04:48;;;;;;;3.40;2.90;;;24.50;72.50;;;;;;5046960;28;20461;-66
2023/06/14 04:07:15;;;;;;;2.90;2.70;;;24.50;72.60;;;;;;5054787;28;20476;-63
2023/06/14 04:09:42;;;;;;;4.03;2.90;;;24.50;72.50;;;;;;5050125;28;20472;-64
2023/06/14 04:12:11;;;;;;;3.80;3.33;;;24.50;72.50;;;;;;5049418;28;20482;-62
2023/06/14 04:14:38;;;;;;;3.23;2.93;;;24.50;72.60;;;;;;5042824;28;20462;-64
2023/06/14 04:17:06;;;;;;;3.00;2.80;;;24.50;72.60;;;;;;5047113;28;20457;-63
2023/06/14 04:19:33;;;;;;;3.67;3.37;;;24.50;72.60;;;;;;5044136;28;20465;-63
2023/06/14 04:22:01;;;;;;;2.97;2.77;;;24.50;72.60;;;;;;5047363;28;20485;-64
2023/06/14 04:24:31;;;;;;;3.30;3.00;;;24.50;72.60;;;;;;5049322;28;20478;-63
2023/06/14 04:27:00;;;;;;;2.87;2.63;;;24.50;72.60;;;;;;5047866;28;20466;-63
2023/06/14 04:29:29;;;;;;;3.27;2.97;;;24.50;72.60;;;;;;5049200;28;20552;-63
2023/06/14 04:31:58;;;;;;;2.87;2.67;;;24.50;72.60;;;;;;5049517;28;20478;-63
2023/06/14 04:34:29;;;;;;;3.50;3.20;;;24.50;73.40;;;;;;5047164;28;21037;-63
2023/06/14 04:36:57;;;;;;;2.90;2.63;;;24.50;72.60;;;;;;5050076;28;20514;-63
2023/06/14 04:39:25;;;;;;;3.50;3.20;;;24.50;72.70;;;;;;5048385;28;21035;-63
2023/06/14 04:41:56;;;;;;;3.30;3.00;;;24.50;72.70;;;;;;5050737;28;20461;-63
2023/06/14 04:44:29;;;;;;;3.13;2.93;;;24.50;72.70;;;;;;5044245;28;20463;-63
2023/06/14 04:46:56;;;;;;;2.80;2.60;;;24.50;72.70;;;;;;5048514;28;20821;-64
2023/06/14 04:49:23;;;;;;;3.03;2.73;;;24.50;72.70;;;;;;5046443;28;20818;-63
2023/06/14 04:51:57;;;;;;;8.47;3.03;;;24.50;72.80;;;;;;5050530;28;20607;-63
2023/06/14 04:54:25;;;;;;;3.23;3.03;;;24.40;72.70;;;;;;5046967;28;20682;-63
2023/06/14 04:56:53;;;;;;;2.67;2.47;;;24.40;72.70;;;;;;5049107;28;20455;-63
2023/06/14 04:59:19;;;;;;;3.60;3.30;;;24.40;73.50;;;;;;5039861;28;20858;-64
2023/06/14 05:01:48;;;;;;;2.80;2.60;;;24.40;72.70;;;;;;5043690;28;20804;-64
2023/06/14 05:04:14;;;;;;;3.37;3.00;;;24.40;72.70;;;;;;5042206;28;20834;-63
2023/06/14 05:06:41;;;;;;;4.57;3.40;;;24.40;72.70;;;;;;5037837;28;20823;-63
2023/06/14 05:09:09;;;;;;;3.37;3.07;;;24.40;72.70;;;;;;5040862;28;20473;-63
2023/06/14 05:11:36;;;;;;;4.37;3.33;;;24.40;72.70;;;;;;5038410;28;20455;-63
2023/06/14 05:14:02;;;;;;;3.93;3.47;;;24.40;72.70;;;;;;5038200;28;20469;-65
2023/06/14 05:16:29;;;;;;;7.63;2.97;;;24.40;72.70;;;;;;5038391;28;20500;-64
2023/06/14 05:18:56;;;;;;;3.80;3.50;;;24.40;72.80;;;;;;5037532;28;20466;-62
2023/06/14 05:21:23;;;;;;;3.90;3.50;;;24.40;72.70;;;;;;5050051;28;20462;-62
2023/06/14 05:23:50;;;;;;;3.70;3.40;;;24.40;72.80;;;;;;5042546;28;20513;-62
2023/06/14 05:26:18;;;;;;;4.03;3.57;;;24.40;72.80;;;;;;5056014;28;20446;-63
2023/06/14 05:28:45;;;;;;;3.60;3.30;;;24.40;72.80;;;;;;5044875;28;20462;-65
2023/06/14 05:31:11;;;;;;;4.53;3.03;;;24.40;72.80;;;;;;5046771;28;20461;-62
2023/06/14 05:33:38;;;;;;;3.20;2.90;;;24.40;72.90;;;;;;5043028;28;20486;-63
2023/06/14 05:36:05;;;;;;;3.33;3.03;;;24.40;72.80;;;;;;5042201;28;20450;-62
2023/06/14 05:38:32;;;;;;;5.10;3.40;;;24.40;72.80;;;;;;5044881;28;20466;-63
2023/06/14 05:40:59;;;;;;;3.50;3.20;;;24.40;72.70;;;;;;5046037;28;20512;-64
2023/06/14 05:43:27;;;;;;;3.30;2.97;;;24.40;72.80;;;;;;5039648;28;20471;-62
2023/06/14 05:45:54;;;;;;;2.93;2.63;;;24.40;72.70;;;;;;5046020;28;20872;-62
2023/06/14 05:48:21;;;;;;;4.40;3.10;;;24.40;72.70;;;;;;5056154;28;20466;-62
2023/06/14 05:50:47;;;;;;;3.60;3.30;;;24.40;72.70;;;;;;5051075;28;20500;-62
2023/06/14 05:53:14;;;;;;;3.70;3.40;;;24.40;72.70;;;;;;5046195;28;20576;-65
2023/06/14 05:55:41;;;;;;;3.47;3.23;;;24.40;72.80;;;;;;5045874;28;20454;-63
2023/06/14 05:58:08;;;;;;;3.60;3.30;;;24.40;72.80;;;;;;5044322;28;20461;-67
2023/06/14 06:00:36;;;;;;;3.30;3.00;;;24.40;72.80;;;;;;5028921;28;21231;-66
2023/06/14 06:03:02;;;;;;;3.70;3.40;;;24.40;72.90;;;;;;5036085;28;20533;-66
2023/06/14 06:05:29;;;;;;;3.40;3.10;;;24.40;73.30;;;;;;5036161;28;20462;-65
2023/06/14 06:07:56;;;;;;;4.33;3.93;;;24.40;73.20;;;;;;5039619;28;20457;-64
2023/06/14 06:10:23;;;;;;;3.63;3.33;;;24.40;73.30;;;;;;5037547;28;20455;-64
2023/06/14 06:12:51;;;;;;;3.63;3.33;;;24.40;73.30;;;;;;5035416;28;20494;-65
2023/06/14 06:15:18;;;;;;;5.30;3.30;;;24.40;71.90;;;;;;5039171;28;20489;-65
2023/06/14 06:17:46;;;;;;;3.27;2.97;;;24.40;69.90;;;;;;5035432;28;20527;-65
2023/06/14 06:20:13;;;;;;;3.67;3.37;;;24.30;68.50;;;;;;5041393;28;20454;-65
2023/06/14 06:22:40;;;;;;;5.60;3.20;;;24.30;67.10;;;;;;5053689;28;20438;-63
2023/06/14 06:25:08;;;;;;;5.27;3.00;;;24.20;65.60;;;;;;5051957;28;20469;-64
2023/06/14 06:27:35;;;;;;;2.80;2.60;;;24.20;65.50;;;;;;5050175;28;20774;-64
2023/06/14 06:30:02;;;;;;;3.50;2.60;;;24.20;65.00;;;;;;5037903;28;20465;-65
2023/06/14 06:32:29;;;;;;;3.73;2.53;;;24.20;64.50;;;;;;5042555;28;20983;-64
2023/06/14 06:34:57;;;;;;;2.53;2.17;;;24.10;64.20;;;;;;5041350;28;20523;-64
2023/06/14 06:37:23;;;;;;;3.20;2.90;;;24.10;64.00;;;;;;5035529;28;20472;-65
2023/06/14 06:39:50;;;;;;;3.43;2.70;;;24.10;62.50;;;;;;5036734;28;20457;-64
2023/06/14 06:42:17;;;;;;;3.30;2.30;;;24.10;63.00;;;;;;5036554;28;20461;-64
2023/06/14 06:44:43;;;;;;;5.40;3.00;;;24.00;62.60;;;;;;5036526;28;20450;-64
2023/06/14 06:47:11;;;;;;;6.50;2.50;;;24.10;62.50;;;;;;5038494;28;20521;-63
2023/06/14 06:49:38;;;;;;;3.10;2.80;;;24.00;62.40;;;;;;5038735;28;20561;-65
2023/06/14 06:52:07;;;;;;;3.77;2.13;;;24.00;63.00;;;;;;5042237;28;20477;-64
2023/06/14 06:54:34;;;;;;;6.00;2.73;;;24.00;62.10;;;;;;5044808;28;20505;-65
2023/06/14 06:57:01;;;;;;;5.00;3.00;;;24.00;62.80;;;;;;5042473;28;20541;-67
2023/06/14 06:59:29;;;;;;;4.90;2.37;;;24.00;61.60;;;;;;5043058;28;20544;-65
2023/06/14 07:01:55;;;;;;;4.13;2.50;;;24.00;61.30;;;;;;5038152;28;20546;-65
2023/06/14 07:04:22;;;;;;;2.43;2.23;;;24.00;62.80;;;;;;5035636;28;20465;-66
2023/06/14 07:06:49;;;;;;;3.83;2.57;;;24.00;62.20;;;;;;5034988;28;20476;-65
2023/06/14 07:09:19;;;;;;;2.60;2.27;;;24.00;61.70;;;;;;5037665;28;20516;-64
2023/06/14 07:11:47;;;;;;;2.30;2.10;;;24.00;60.90;;;;;;5042750;28;20532;-65
2023/06/14 07:14:14;;;;;;;2.40;2.07;;;23.90;60.70;;;;;;5034561;28;20481;-66
2023/06/14 07:16:41;;;;;;;6.13;2.00;;;23.90;61.30;;;;;;5038434;28;20468;-64
2023/06/14 07:19:09;;;;;;;5.10;2.40;;;23.90;61.60;;;;;;5034800;28;21046;-66
2023/06/14 07:21:37;;;;;;;2.47;2.03;;;23.90;61.70;;;;;;5037201;28;20962;-65
2023/06/14 07:24:04;;;;;;;2.33;2.07;;;23.90;61.00;;;;;;5041679;28;20814;-67
2023/06/14 07:26:33;;;;;;;3.60;2.47;;;23.90;61.40;;;;;;5043328;28;20458;-65
2023/06/14 07:29:00;;;;;;;5.23;2.40;;;23.90;61.70;;;;;;5044364;28;20509;-66
2023/06/14 07:31:27;;;;;;;1.63;1.53;;;23.90;61.00;;;;;;5035005;28;20557;-64
2023/06/14 07:33:53;;;;;;;2.20;1.80;;;23.90;60.80;;;;;;5039981;28;20522;-65
2023/06/14 07:36:20;;;;;;;2.00;1.80;;;23.90;60.60;;;;;;5040995;28;20470;-65
2023/06/14 07:38:47;;;;;;;3.50;2.00;;;23.90;60.60;;;;;;5039539;28;20450;-64
2023/06/14 07:41:14;;;;;;;2.10;1.20;;;23.90;61.40;;;;;;5039514;28;20458;-65
2023/06/14 07:43:42;;;;;;;3.53;1.50;;;23.90;59.80;;;;;;5047261;28;20469;-65
2023/06/14 07:46:09;;;;;;;3.53;1.40;;;23.90;60.40;;;;;;5043936;28;20466;-65
2023/06/14 07:48:36;;;;;;;2.23;2.03;;;23.90;60.60;;;;;;5040960;28;20516;-66
2023/06/14 07:51:03;;;;;;;4.20;1.33;;;23.90;61.30;;;;;;5039482;28;20458;-64
2023/06/14 07:53:31;;;;;;;2.73;1.63;;;23.80;60.10;;;;;;5041738;28;20482;-65
2023/06/14 07:55:57;;;;;;;2.43;1.50;;;23.80;60.30;;;;;;5039580;28;20536;-65
2023/06/14 07:58:24;;;;;;;2.07;1.87;;;23.80;61.50;;;;;;5040629;28;22268;-66
2023/06/14 08:00:52;;;;;;;2.47;1.80;;;23.90;60.60;;;;;;5045866;28;20469;-64
2023/06/14 08:03:19;;;;;;;2.73;1.60;;;23.90;60.30;;;;;;5046395;28;20821;-65
2023/06/14 08:05:46;;;;;;;1.33;1.17;;;23.90;59.80;;;;;;5048074;28;20943;-65
2023/06/14 08:08:12;;;;;;;2.50;1.87;;;23.80;59.70;;;;;;5042936;28;20462;-65
2023/06/14 08:10:39;;;;;;;2.47;1.50;;;23.80;60.20;;;;;;5038685;28;20454;-68
2023/06/14 08:13:06;;;;;;;1.20;1.10;;;23.80;60.40;;;;;;5041021;28;20476;-64
2023/06/14 08:15:33;;;;;;;4.10;2.00;;;23.80;60.10;;;;;;5040473;28;20978;-64
2023/06/14 08:18:01;;;;;;;2.00;1.50;;;23.80;60.40;;;;;;5043626;28;20462;-65
2023/06/14 08:20:30;;;;;;;2.40;2.17;;;23.90;61.60;;;;;;5045459;28;20477;-66
2023/06/14 08:22:57;;;;;;;5.30;1.70;;;23.90;61.00;;;;;;5047186;28;20466;-66
2023/06/14 08:25:23;;;;;;;1.50;1.40;;;23.90;61.10;;;;;;5040495;28;20993;-65
2023/06/14 08:27:50;;;;;;;4.50;1.70;;;23.90;61.20;;;;;;5048305;28;20838;-65
2023/06/14 08:30:18;;;;;;;1.67;1.30;;;23.90;61.30;;;;;;5045320;28;20461;-64
2023/06/14 08:32:45;;;;;;;2.60;1.50;;;23.90;61.40;;;;;;5044628;28;20465;-66
2023/06/14 08:35:13;;;;;;;2.20;1.80;;;23.90;61.50;;;;;;5044509;28;20548;-65
2023/06/14 08:37:41;;;;;;;1.90;1.63;;;23.90;61.70;;;;;;5050459;28;20460;-65
2023/06/14 08:40:19;;;;;;;2.57;1.40;;;23.90;61.70;;;;;;5049911;28;20533;-65
2023/06/14 08:42:48;;;;;;;1.33;1.20;;;23.90;61.80;;;;;;5047387;28;20454;-64
2023/06/14 08:45:15;;;;;;;2.30;1.50;;;23.90;62.00;;;;;;5032701;28;20455;-66
2023/06/14 08:47:41;;;;;;;1.23;1.13;;;23.90;62.80;;;;;;5046510;28;20855;-65
2023/06/14 08:50:09;;;;;;;2.43;2.23;;;23.90;62.10;;;;;;5045250;28;20823;-64
2023/06/14 08:52:40;;;;;;;1.50;1.37;;;23.90;62.10;;;;;;5046939;28;20489;-65
2023/06/14 08:55:08;;;;;;;1.57;1.37;;;23.90;62.20;;;;;;5044157;28;20481;-64
2023/06/14 08:57:37;;;;;;;2.50;1.17;;;23.90;62.30;;;;;;5044045;28;20846;-65
2023/06/14 09:00:11;;;;;;;1.60;1.43;;;23.90;62.40;;;;;;5040164;28;20461;-67
2023/06/14 09:02:38;;;;;;;1.50;1.40;;;23.90;62.50;;;;;;5045567;28;20462;-65
2023/06/14 09:05:05;;;;;;;3.57;1.60;;;23.90;62.60;;;;;;5040690;28;20576;-67
2023/06/14 09:07:32;;;;;;;4.60;1.37;;;23.90;62.80;;;;;;5049215;28;20863;-65
2023/06/14 09:10:09;;;;;;;1.67;1.30;;;24.00;63.20;;;;;;5043600;28;20876;-66
2023/06/14 09:12:36;;;;;;;1.57;1.13;;;24.00;63.10;;;;;;5043023;28;20955;-64
2023/06/14 09:15:05;;;;;;;1.70;1.53;;;24.00;63.40;;;;;;5046938;28;20482;-65
2023/06/14 09:17:33;;;;;;;3.10;2.10;;;24.00;63.30;;;;;;5045267;28;20474;-64
2023/06/14 09:20:00;;;;;;;5.97;1.53;;;24.00;63.70;;;;;;5041226;28;20524;-64
2023/06/14 09:22:30;;;;;;;1.50;1.40;;;24.00;64.00;;;;;;5042722;28;20556;-64
2023/06/14 09:24:56;;;;;;;2.73;1.43;;;24.00;64.10;;;;;;5042922;28;20477;-64
2023/06/14 09:27:26;;;;;;;1.40;1.30;;;24.00;64.20;;;;;;5040433;28;20462;-65
2023/06/14 09:29:53;;;;;;;2.50;1.20;;;24.00;64.50;;;;;;5039867;28;20863;-66
2023/06/14 09:32:20;;;;;;;4.03;1.40;;;24.00;64.50;;;;;;5044386;28;20458;-64
2023/06/14 09:34:47;;;;;;;5.90;1.77;;;24.00;64.50;;;;;;5044049;28;20901;-64
2023/06/14 09:37:14;;;;;;;2.43;1.47;;;24.00;64.70;;;;;;5044550;28;20438;-64
2023/06/14 09:39:50;;;;;;;4.23;1.40;;;24.00;64.70;;;;;;5043064;28;20454;-64
2023/06/14 09:42:19;;;;;;;1.90;1.30;;;24.00;64.80;;;;;;5050057;28;20477;-65
2023/06/14 09:44:48;;;;;;;3.13;1.30;;;24.00;65.00;;;;;;5043021;28;20454;-66
2023/06/14 09:47:16;;;;;;;2.00;1.60;;;24.00;65.00;;;;;;5051374;28;20458;-64
2023/06/14 09:49:43;;;;;;;1.40;1.30;;;24.00;65.10;;;;;;5039459;28;20829;-63
2023/06/14 09:52:12;;;;;;;1.50;1.30;;;24.00;65.20;;;;;;5048332;28;20540;-64
2023/06/14 09:54:42;;;;;;;2.37;1.50;;;24.00;65.20;;;;;;5045524;28;20531;-64
2023/06/14 09:57:11;;;;;;;1.60;1.43;;;24.00;65.30;;;;;;5044553;28;20538;-64
2023/06/14 09:59:42;;;;;;;1.50;1.37;;;24.00;65.40;;;;;;5046609;28;20458;-65
2023/06/14 10:02:15;;;;;;;1.93;1.20;;;24.00;65.40;;;;;;5042662;28;20454;-63
2023/06/14 10:04:50;;;;;;;1.70;1.30;;;24.00;65.60;;;;;;5040933;28;20480;-64
2023/06/14 10:07:21;;;;;;;1.60;1.40;;;24.00;65.60;;;;;;5042027;28;20516;-63
2023/06/14 10:09:49;;;;;;;1.80;1.70;;;24.00;65.70;;;;;;5043552;28;20532;-64
2023/06/14 10:12:20;;;;;;;1.97;1.50;;;24.00;65.70;;;;;;5044621;28;20548;-64
2023/06/14 10:14:48;;;;;;;1.77;1.40;;;24.00;65.80;;;;;;5043824;28;20485;-63
2023/06/14 10:17:25;;;;;;;2.00;1.80;;;24.00;65.80;;;;;;5038047;28;20469;-63
2023/06/14 10:19:57;;;;;;;1.50;1.23;;;24.00;66.00;;;;;;5038134;28;20466;-64
2023/06/14 10:22:33;;;;;;;1.50;1.20;;;24.10;66.30;;;;;;5042149;28;20470;-66
2023/06/14 10:25:01;;;;;;;1.33;1.23;;;24.10;66.20;;;;;;5038274;28;20489;-65
2023/06/14 10:27:28;;;;;;;1.30;1.20;;;24.10;66.00;;;;;;5038141;28;21220;-65
2023/06/14 10:30:04;;;;;;;1.77;1.60;;;24.00;65.80;;;;;;5041042;28;20508;-64
2023/06/14 10:32:33;;;;;;;1.93;1.47;;;24.10;65.80;;;;;;5040494;28;20460;-64
2023/06/14 10:35:01;;;;;;;1.80;1.60;;;24.00;64.80;;;;;;5025660;28;20486;-66
2023/06/14 10:37:27;;;;;;;1.43;1.20;;;24.00;64.90;;;;;;5031855;28;20454;-63
2023/06/14 10:39:54;;;;;;;1.37;1.20;;;24.00;64.40;;;;;;5036089;28;20465;-64
2023/06/14 10:42:22;;;;;;;1.40;1.17;;;24.00;64.00;;;;;;5038543;28;20455;-63
2023/06/14 10:44:52;;;;;;;2.27;1.30;;;24.00;63.60;;;;;;5034187;28;20545;-64
2023/06/14 10:47:24;;;;;;;2.53;1.07;;;24.00;63.60;;;;;;5033816;28;20458;-64
2023/06/14 10:49:54;;;;;;;1.60;1.50;;;24.00;63.60;;;;;;5030392;28;21067;-63
2023/06/14 10:52:29;;;;;;;6.90;1.50;;;24.00;64.00;;;;;;5036615;28;20458;-63
2023/06/14 10:55:18;;;;;;;2.27;1.40;;;24.00;64.50;;;;;;5045746;28;20478;-63
2023/06/14 10:57:50;;;;;;;1.60;1.40;;;24.00;64.40;;;;;;5038737;28;20461;-63
2023/06/14 11:00:20;;;;;;;1.57;1.30;;;24.00;64.70;;;;;;5039544;28;20803;-65
2023/06/14 11:03:21;;;;;;;1.67;1.57;;;24.00;64.80;;;;;;5039948;28;20831;-64
2023/06/14 11:05:53;;;;;;;2.50;1.63;;;24.00;65.00;;;;;;5034578;28;20466;-64
2023/06/14 11:08:47;;;;;;;1.40;1.17;;;24.00;65.20;;;;;;5045550;28;21024;-63
2023/06/14 11:11:14;;;;;;;1.83;1.20;;;24.00;66.00;;;;;;5040457;28;20842;-64
2023/06/14 11:13:45;;;;;;;1.30;1.20;;;24.00;65.30;;;;;;5032688;28;20454;-63
2023/06/14 11:16:12;;;;;;;1.80;1.50;;;24.00;65.50;;;;;;5031764;28;20549;-63
2023/06/14 11:18:39;;;;;;;4.20;1.27;;;24.00;65.50;;;;;;5044797;28;20490;-63
2023/06/14 11:21:08;;;;;;;1.73;1.20;;;24.00;65.40;;;;;;5030748;28;20454;-62
2023/06/14 11:23:35;;;;;;;1.50;1.30;;;24.00;65.30;;;;;;5028190;28;20851;-64
2023/06/14 11:26:02;;;;;;;2.30;1.77;;;24.10;65.50;;;;;;5032457;28;20485;-63
2023/06/14 11:28:37;;;;;;;1.30;1.10;;;24.00;65.50;;;;;;5033550;28;20458;-63
2023/06/14 11:31:05;;;;;;;1.20;1.10;;;24.10;65.70;;;;;;5034018;28;20450;-63
2023/06/14 11:33:31;;;;;;;1.63;1.53;;;24.10;65.70;;;;;;5032229;28;20458;-64
2023/06/14 11:35:58;;;;;;;1.57;1.23;;;24.10;65.80;;;;;;5030381;28;20493;-64
2023/06/14 11:38:27;;;;;;;1.43;1.30;;;24.00;65.70;;;;;;5037805;28;20464;-62
2023/06/14 11:40:54;;;;;;;1.30;1.20;;;24.10;65.80;;;;;;5032243;28;20462;-63
2023/06/14 11:43:21;;;;;;;1.60;1.40;;;24.00;65.70;;;;;;5035673;28;20502;-64
2023/06/14 11:45:49;;;;;;;1.60;1.20;;;24.10;65.60;;;;;;5038913;28;20538;-64
2023/06/14 11:48:16;;;;;;;1.20;1.10;;;24.10;65.40;;;;;;5036476;28;20466;-64
2023/06/14 11:50:42;;;;;;;2.00;1.53;;;24.00;65.40;;;;;;5029357;28;20454;-64
2023/06/14 11:53:10;;;;;;;1.30;1.10;;;24.10;65.60;;;;;;5030641;28;20480;-63
2023/06/14 11:55:40;;;;;;;1.30;1.17;;;24.10;65.80;;;;;;5030385;28;20474;-63
2023/06/14 11:58:07;;;;;;;2.10;1.93;;;24.10;65.80;;;;;;5029342;28;20536;-64
2023/06/14 12:00:36;;;;;;;1.50;1.20;;;24.10;65.90;;;;;;5034914;28;20454;-62
2023/06/14 12:03:03;;;;;;;1.60;1.20;;;24.10;65.90;;;;;;5032963;28;21126;-63
2023/06/14 12:05:29;;;;;;;1.10;1.00;;;24.10;65.90;;;;;;5039414;28;20461;-63
2023/06/14 12:08:00;;;;;;;1.30;1.20;;;24.10;65.90;;;;;;5034057;28;20455;-63
2023/06/14 12:10:30;;;;;;;1.30;1.10;;;24.10;65.90;;;;;;5042299;28;20537;-65
2023/06/14 12:13:01;;;;;;;2.30;1.30;;;24.10;66.10;;;;;;5040377;28;20520;-65
2023/06/14 12:15:29;;;;;;;1.70;1.50;;;24.10;66.00;;;;;;5046227;28;20478;-63
2023/06/14 12:17:56;;;;;;;1.23;1.07;;;24.10;66.10;;;;;;5036679;28;20744;-63
2023/06/14 12:20:24;;;;;;;1.30;1.20;;;24.10;66.10;;;;;;5040608;28;20469;-63
2023/06/14 12:22:56;;;;;;;2.10;1.90;;;24.10;66.20;;;;;;5036087;28;20572;-63
2023/06/14 12:25:30;;;;;;;1.30;1.10;;;24.10;66.20;;;;;;5046128;28;20473;-64
2023/06/14 12:27:57;;;;;;;1.20;1.10;;;24.10;66.20;;;;;;5043296;28;20454;-63
2023/06/14 12:30:25;;;;;;;1.63;1.20;;;24.10;66.20;;;;;;5040419;28;20466;-63
2023/06/14 12:32:52;;;;;;;2.70;1.13;;;24.10;66.20;;;;;;5037733;28;20504;-63
2023/06/14 12:35:19;;;;;;;1.30;1.13;;;24.10;66.30;;;;;;5046485;28;20481;-64
2023/06/14 12:37:46;;;;;;;1.30;1.20;;;24.10;66.30;;;;;;5036662;28;20606;-63
2023/06/14 12:40:13;;;;;;;2.47;1.17;;;24.10;66.40;;;;;;5034783;28;20962;-64
2023/06/14 12:42:41;;;;;;;2.13;1.20;;;24.10;66.40;;;;;;5034216;28;20458;-64
2023/06/14 12:45:08;;;;;;;1.20;1.10;;;24.10;66.40;;;;;;5038508;28;20523;-63
2023/06/14 12:47:36;;;;;;;2.80;1.30;;;24.10;66.40;;;;;;5039282;28;20450;-63
2023/06/14 12:50:03;;;;;;;1.10;0.90;;;24.10;66.20;;;;;;5035941;28;20455;-65
2023/06/14 12:52:30;;;;;;;1.10;1.00;;;24.10;66.30;;;;;;5034146;28;21039;-64